Time;durP1;ratioP1;P1;durP2;ratioP2;P2;SDS_P1;SDS_P2;PMS_P1;PMS_P2;Temp;Humidity;BMP_temperature;BMP_pressure;BME280_temperature;BME280_humidity;BME280_pressure;Samples;Min_cycle;Max_cycle;Signal;HPM_P1;HPM_P2
2022/01/14 00:01:05;;;;;;;17.20;11.87;;;;;;;-1.70;55.59;95805.13;5079299;28;20268;-79
2022/01/14 00:03:31;;;;;;;17.60;12.77;;;;;;;-1.42;54.58;95798.34;5089485;28;20236;-79
2022/01/14 00:05:56;;;;;;;14.45;9.30;;;;;;;-1.73;54.92;95800.16;5082404;28;20413;-79
2022/01/14 00:08:22;;;;;;;18.90;11.60;;;;;;;-1.49;55.37;95803.00;5082462;28;20189;-79
2022/01/14 00:10:49;;;;;;;16.70;11.97;;;;;;;-1.52;55.32;95792.91;5083357;28;20501;-78
2022/01/14 00:13:41;;;;;;;10.50;8.05;;;;;;;-1.15;54.57;95803.56;5088839;28;20555;-78
2022/01/14 00:16:02;;;;;;;16.70;10.52;;;;;;;-1.79;55.46;95790.25;5088859;28;20189;-79
2022/01/14 00:18:28;;;;;;;25.42;11.40;;;;;;;-1.27;54.97;95811.97;5089368;28;20186;-78
2022/01/14 00:20:53;;;;;;;11.00;7.47;;;;;;;-1.22;53.92;95799.69;5082912;28;20224;-78
2022/01/14 00:23:26;;;;;;;21.33;12.03;;;;;;;-1.26;54.57;95806.75;5081298;28;20218;-78
2022/01/14 00:31:42;;;;;;;14.43;10.77;;;;;;;-1.44;54.55;95818.13;5089887;28;20315;-79
2022/01/14 00:34:08;;;;;;;19.55;11.60;;;;;;;-0.95;53.34;95822.03;5091011;28;20186;-79
2022/01/14 00:36:34;;;;;;;11.85;9.20;;;;;;;-1.00;53.27;95824.91;5077616;28;20174;-81
2022/01/14 00:38:59;;;;;;;16.30;11.20;;;;;;;-0.95;52.91;95817.72;5082825;28;20247;-79
2022/01/14 00:41:25;;;;;;;11.90;7.60;;;;;;;-1.05;53.23;95835.44;5080385;28;20181;-79
2022/01/14 00:43:57;;;;;;;13.93;9.20;;;;;;;-0.61;52.25;95819.03;5085082;28;20252;-79
2022/01/14 00:46:22;;;;;;;17.58;9.50;;;;;;;-0.30;51.57;95817.09;5078011;28;20182;-78
2022/01/14 00:48:48;;;;;;;16.00;10.77;;;;;;;-0.89;52.74;95819.09;5074257;28;20281;-79
2022/01/14 00:51:13;;;;;;;19.40;11.33;;;;;;;-0.74;52.61;95819.88;5078677;28;20179;-78
2022/01/14 00:53:38;;;;;;;19.77;11.40;;;;;;;-0.62;52.00;95817.38;5064078;28;20190;-78
2022/01/14 00:56:20;;;;;;;18.23;12.13;;;;;;;-0.66;51.87;95828.78;5076906;28;20185;-79
2022/01/14 01:01:30;;;;;;;13.60;10.45;;;;;;;-0.68;51.98;95835.75;5087492;28;20235;-79
2022/01/14 01:03:55;;;;;;;14.73;10.73;;;;;;;-0.64;51.96;95826.94;5056866;28;20285;-77
2022/01/14 01:06:21;;;;;;;14.50;10.20;;;;;;;-1.07;52.57;95841.59;5077287;28;20631;-77
2022/01/14 01:08:49;;;;;;;15.63;11.30;;;;;;;-0.52;51.75;95834.78;5051518;28;20257;-77
2022/01/14 01:11:18;;;;;;;16.48;10.60;;;;;;;-0.53;50.45;95820.28;5080396;28;20205;-78
2022/01/14 01:13:49;;;;;;;13.07;9.77;;;;;;;-0.51;50.85;95810.72;5071189;28;20178;-78
2022/01/14 01:16:15;;;;;;;13.00;9.50;;;;;;;-0.28;49.83;95806.72;5071257;28;20185;-78
2022/01/14 01:18:40;;;;;;;17.17;12.70;;;;;;;-0.23;49.97;95805.50;5071380;28;20197;-78
2022/01/14 01:21:09;;;;;;;14.73;11.07;;;;;;;-0.30;50.14;95793.94;5049960;28;20185;-79
2022/01/14 01:23:34;;;;;;;16.95;11.00;;;;;;;-0.34;50.55;95799.38;5085238;28;20214;-78
2022/01/14 01:26:10;;;;;;;10.73;8.80;;;;;;;-0.31;50.01;95784.56;5088164;28;20237;-79
2022/01/14 01:28:42;;;;;;;18.33;10.80;;;;;;;-0.56;50.42;95774.22;5087313;28;20208;-80
2022/01/14 01:31:35;;;;;;;17.40;10.13;;;;;;;-0.49;50.54;95780.63;5078561;28;20185;-79
2022/01/14 01:33:53;;;;;;;15.48;11.10;;;;;;;-0.29;49.55;95775.00;5086733;28;20197;-79
2022/01/14 01:36:18;;;;;;;13.70;10.53;;;;;;;-0.31;49.43;95786.31;5088455;28;20231;-78
2022/01/14 01:38:44;;;;;;;15.83;10.70;;;;;;;-0.12;49.06;95778.22;5088315;28;20208;-78
2022/01/14 01:41:12;;;;;;;13.57;9.77;;;;;;;-0.63;50.07;95781.50;5077553;28;20183;-79
2022/01/14 01:43:39;;;;;;;14.77;9.20;;;;;;;-0.53;50.17;95769.72;5082224;28;20222;-78
2022/01/14 01:46:04;;;;;;;13.57;10.32;;;;;;;-0.14;48.73;95774.94;5068471;28;20175;-79
2022/01/14 01:48:30;;;;;;;12.90;8.53;;;;;;;-0.47;49.35;95773.66;5083160;28;20194;-79
2022/01/14 01:50:58;;;;;;;18.83;10.27;;;;;;;-0.64;50.67;95777.28;5088282;28;20166;-79
2022/01/14 01:53:23;;;;;;;16.67;12.35;;;;;;;-0.34;49.21;95761.63;5088431;28;20178;-79
2022/01/14 01:55:49;;;;;;;16.00;8.67;;;;;;;-0.50;49.85;95768.69;5079961;28;20200;-79
2022/01/14 01:58:14;;;;;;;14.23;10.40;;;;;;;-0.31;49.37;95765.75;5062587;28;20182;-79
2022/01/14 02:00:40;;;;;;;15.83;10.93;;;;;;;-0.25;49.43;95766.19;5068074;28;20228;-78
2022/01/14 02:03:07;;;;;;;19.40;10.17;;;;;;;-0.01;48.87;95763.72;5073361;28;20289;-79
2022/01/14 02:05:33;;;;;;;13.05;8.93;;;;;;;-0.27;49.22;95756.91;5085299;28;20269;-78
2022/01/14 02:07:59;;;;;;;18.00;9.93;;;;;;;-0.42;50.10;95756.16;5075368;28;20210;-79
2022/01/14 02:10:26;;;;;;;16.67;9.87;;;;;;;-0.11;49.38;95743.88;5086090;28;20185;-78
2022/01/14 02:12:53;;;;;;;15.88;9.38;;;;;;;-0.15;48.90;95729.56;5086262;28;20194;-78
2022/01/14 02:23:23;;;;;;;19.80;9.80;;;;;;;0.25;47.74;95701.13;5079650;28;20196;-78
2022/01/14 02:25:48;;;;;;;13.30;8.38;;;;;;;0.17;47.81;95710.22;5055456;28;20193;-78
2022/01/14 02:28:17;;;;;;;15.23;8.50;;;;;;;-0.03;47.63;95703.03;5085577;28;20184;-78
2022/01/14 02:30:46;;;;;;;16.15;11.23;;;;;;;-0.15;48.07;95699.53;5056436;28;20177;-78
2022/01/14 02:33:13;;;;;;;14.18;9.68;;;;;;;0.07;47.74;95704.03;5068227;28;20169;-77
2022/01/14 02:35:40;;;;;;;12.98;7.47;;;;;;;0.15;47.42;95712.09;5066113;28;20649;-79
2022/01/14 02:38:08;;;;;;;14.10;9.48;;;;;;;0.02;48.26;95711.25;5079256;28;20245;-78
2022/01/14 02:40:34;;;;;;;18.05;10.50;;;;;;;0.38;47.28;95702.78;5084756;28;20174;-78
2022/01/14 02:43:01;;;;;;;12.20;9.53;;;;;;;0.42;47.06;95702.56;5073624;28;20222;-78
2022/01/14 02:45:30;;;;;;;16.35;10.75;;;;;;;0.46;47.36;95704.03;5084100;28;20214;-78
2022/01/14 02:47:56;;;;;;;12.18;9.80;;;;;;;0.01;47.22;95708.78;5085542;28;20173;-78
2022/01/14 02:50:24;;;;;;;16.60;9.57;;;;;;;-0.11;48.07;95695.00;5067068;28;20197;-78
2022/01/14 02:55:21;;;;;;;13.85;9.38;;;;;;;-0.03;47.27;95700.44;5081788;28;20205;-78
2022/01/14 02:57:54;;;;;;;15.27;8.45;;;;;;;-0.17;47.82;95691.09;5078284;28;20193;-78
2022/01/14 03:00:23;;;;;;;12.57;7.70;;;;;;;-0.35;48.00;95697.44;5081082;28;20435;-78
2022/01/14 03:02:51;;;;;;;17.02;9.82;;;;;;;0.06;46.55;95688.69;5069798;28;20231;-78
2022/01/14 03:05:18;;;;;;;8.68;7.78;;;;;;;-0.17;46.78;95679.97;5056103;28;20214;-79
2022/01/14 03:07:44;;;;;;;9.07;6.15;;;;;;;-0.14;47.02;95675.44;5070110;28;20184;-79
2022/01/14 03:10:13;;;;;;;10.27;7.53;;;;;;;-0.23;46.27;95676.91;5078929;28;20190;-78
2022/01/14 03:12:40;;;;;;;11.00;7.55;;;;;;;0.17;46.13;95673.34;5077501;28;20264;-78
2022/01/14 03:15:06;;;;;;;10.10;7.80;;;;;;;0.45;45.34;95661.97;5057634;28;20198;-80
2022/01/14 03:17:32;;;;;;;17.42;8.20;;;;;;;0.44;45.13;95659.50;5080570;28;20175;-81
2022/01/14 03:19:59;;;;;;;9.20;6.70;;;;;;;0.10;45.76;95661.84;5073581;28;20209;-79
2022/01/14 03:22:53;;;;;;;9.68;6.32;;;;;;;-0.09;45.96;95652.00;5072747;28;20194;-78
2022/01/14 03:27:54;;;;;;;10.93;7.15;;;;;;;0.23;44.72;95636.94;5071779;28;20212;-79
2022/01/14 03:30:20;;;;;;;8.93;7.40;;;;;;;0.11;45.38;95630.03;5082930;28;20242;-78
2022/01/14 03:32:46;;;;;;;13.57;8.30;;;;;;;0.63;44.38;95636.72;5061018;28;20182;-78
2022/01/14 03:35:12;;;;;;;8.73;7.33;;;;;;;0.42;44.49;95628.75;5075539;28;20217;-79
2022/01/14 03:37:39;;;;;;;11.80;6.88;;;;;;;0.64;44.31;95640.09;5074423;28;20208;-78
2022/01/14 03:40:06;;;;;;;10.40;7.30;;;;;;;0.68;44.19;95634.59;5069329;28;20241;-79
2022/01/14 03:42:32;;;;;;;10.10;7.50;;;;;;;0.73;43.45;95635.13;5076173;28;20224;-78
2022/01/14 03:44:58;;;;;;;11.45;6.80;;;;;;;0.43;44.27;95616.69;5088027;28;20249;-79
2022/01/14 03:47:23;;;;;;;12.20;7.90;;;;;;;0.77;43.91;95620.25;5074789;28;20178;-79
2022/01/14 03:49:49;;;;;;;9.30;6.03;;;;;;;0.63;43.75;95615.28;5057037;28;20202;-79
2022/01/14 03:52:16;;;;;;;8.80;7.23;;;;;;;0.78;43.15;95612.44;5082635;28;20182;-79
2022/01/14 03:54:41;;;;;;;9.45;5.45;;;;;;;0.60;43.20;95623.22;5079216;28;20676;-79
2022/01/14 03:57:06;;;;;;;11.20;6.90;;;;;;;0.03;45.10;95617.69;5076128;28;20277;-80
2022/01/14 03:59:32;;;;;;;12.70;7.63;;;;;;;0.35;44.25;95614.66;5091952;28;20244;-77
2022/01/14 04:01:58;;;;;;;8.17;7.37;;;;;;;0.18;44.50;95623.53;5090964;28;20185;-79
2022/01/14 04:04:23;;;;;;;11.10;7.10;;;;;;;0.45;43.70;95620.78;5089510;28;20664;-81
2022/01/14 04:06:49;;;;;;;9.40;7.60;;;;;;;0.38;44.59;95622.97;5070042;28;20273;-79
2022/01/14 04:09:14;;;;;;;15.93;8.67;;;;;;;0.56;44.22;95628.56;5081010;28;20229;-79
2022/01/14 04:11:40;;;;;;;13.70;7.80;;;;;;;0.34;44.62;95619.00;5081516;28;20695;-79
2022/01/14 04:16:49;;;;;;;10.45;8.80;;;;;;;0.43;45.25;95607.19;5073920;28;20412;-79
2022/01/14 04:19:15;;;;;;;14.93;9.40;;;;;;;0.33;45.60;95606.22;5088427;28;20613;-78
2022/01/14 04:21:40;;;;;;;17.23;10.00;;;;;;;0.37;45.94;95602.50;5074693;28;20154;-80
2022/01/14 04:24:06;;;;;;;11.40;7.83;;;;;;;0.21;45.91;95596.75;5080836;28;20298;-78
2022/01/14 04:26:31;;;;;;;14.67;9.93;;;;;;;0.25;46.18;95599.03;5063727;28;20208;-80
2022/01/14 04:28:56;;;;;;;13.97;11.17;;;;;;;0.29;46.73;95604.78;5083057;28;20286;-79
2022/01/14 04:31:22;;;;;;;14.60;9.57;;;;;;;0.22;46.74;95601.00;5051132;28;20626;-78
2022/01/14 04:33:47;;;;;;;10.07;8.17;;;;;;;0.41;45.61;95603.09;5081672;28;20197;-79
2022/01/14 04:36:13;;;;;;;16.77;9.33;;;;;;;0.47;46.03;95612.97;5078049;28;20249;-78
2022/01/14 04:38:39;;;;;;;14.07;7.60;;;;;;;0.24;46.06;95612.00;5088377;28;20182;-78
2022/01/14 04:41:04;;;;;;;11.70;8.60;;;;;;;0.22;46.73;95603.56;5078481;28;20181;-79
2022/01/14 04:43:30;;;;;;;16.70;9.63;;;;;;;0.21;47.34;95605.31;5081801;28;20221;-79
2022/01/14 04:48:25;;;;;;;12.32;8.68;;;;;;;0.50;46.65;95605.03;5087498;28;20192;-78
2022/01/14 04:50:52;;;;;;;17.05;10.63;;;;;;;0.66;45.98;95608.13;5075527;28;20186;-78
2022/01/14 04:53:18;;;;;;;12.63;8.77;;;;;;;0.21;46.80;95604.47;5088193;28;20632;-79
2022/01/14 04:55:44;;;;;;;16.93;10.70;;;;;;;0.61;46.36;95604.25;5055385;28;20199;-79
2022/01/14 04:58:09;;;;;;;19.83;11.30;;;;;;;0.37;47.38;95602.50;5086448;28;20200;-78
2022/01/14 05:00:37;;;;;;;10.73;7.90;;;;;;;0.22;47.38;95601.00;5073382;28;20279;-80
2022/01/14 05:03:03;;;;;;;15.82;9.00;;;;;;;0.44;47.10;95603.72;5069426;28;20467;-78
2022/01/14 05:05:32;;;;;;;16.60;9.60;;;;;;;0.67;46.58;95596.09;5087578;28;20182;-79
2022/01/14 05:07:58;;;;;;;15.63;9.50;;;;;;;0.33;47.24;95595.91;5076893;28;20299;-79
2022/01/14 05:12:49;;;;;;;17.23;10.70;;;;;;;0.82;47.04;95582.13;5073476;28;20726;-78
2022/01/14 05:15:16;;;;;;;9.47;5.33;;;;;;;0.43;47.65;95573.72;5063218;28;20191;-79
2022/01/14 05:17:42;;;;;;;9.90;9.05;;;;;;;-0.04;49.60;95570.16;5079105;28;20185;-79
2022/01/14 05:20:09;;;;;;;12.57;8.90;;;;;;;0.55;48.52;95575.44;5088512;28;20206;-79
2022/01/14 05:22:35;;;;;;;16.52;8.82;;;;;;;0.45;48.00;95592.47;5067590;28;20217;-80
2022/01/14 05:25:00;;;;;;;14.57;10.23;;;;;;;0.43;49.04;95591.75;5069801;28;20212;-79
2022/01/14 05:27:26;;;;;;;17.20;11.30;;;;;;;0.49;48.47;95601.59;5069030;28;20177;-79
2022/01/14 05:29:51;;;;;;;12.30;8.47;;;;;;;0.29;50.28;95599.66;5082284;28;20210;-79
2022/01/14 05:32:17;;;;;;;17.93;9.93;;;;;;;0.30;49.60;95596.94;5086486;28;20181;-80
2022/01/14 05:34:45;;;;;;;27.65;15.93;;;;;;;0.09;49.54;95599.25;5055517;28;20191;-79
2022/01/14 05:37:11;;;;;;;20.38;13.75;;;;;;;0.48;48.96;95605.13;5085190;28;20189;-80
2022/01/14 05:39:37;;;;;;;23.70;14.40;;;;;;;0.21;49.00;95602.75;5086173;28;20178;-79
2022/01/14 05:42:04;;;;;;;26.85;14.82;;;;;;;-0.49;50.20;95598.09;5086548;28;20216;-79
2022/01/14 05:44:30;;;;;;;26.17;16.02;;;;;;;-0.17;50.16;95597.66;5074705;28;20190;-80
2022/01/14 05:46:57;;;;;;;22.77;13.35;;;;;;;-0.52;50.89;95582.88;5084952;28;20189;-79
2022/01/14 05:49:24;;;;;;;23.27;15.70;;;;;;;-0.35;50.53;95589.44;5085262;28;20184;-79
2022/01/14 05:51:50;;;;;;;18.48;12.07;;;;;;;-0.20;50.33;95586.66;5076131;28;20181;-79
2022/01/14 05:54:17;;;;;;;19.02;11.27;;;;;;;0.29;49.35;95579.06;5087774;28;20182;-79
2022/01/14 05:56:43;;;;;;;14.63;10.40;;;;;;;0.09;49.54;95583.81;5074404;28;20219;-79
2022/01/14 05:59:09;;;;;;;22.42;13.65;;;;;;;-0.15;50.46;95585.50;5077024;28;20190;-79
2022/01/14 06:01:35;;;;;;;22.42;13.57;;;;;;;-0.15;50.11;95576.06;5080869;28;20256;-79
2022/01/14 06:04:02;;;;;;;20.83;13.70;;;;;;;0.08;49.63;95574.47;5086208;28;20217;-78
2022/01/14 06:06:28;;;;;;;19.40;13.35;;;;;;;-0.21;49.92;95567.03;5073491;28;20507;-79
2022/01/14 06:08:54;;;;;;;22.92;11.95;;;;;;;-0.22;50.32;95570.50;5073109;28;20194;-80
2022/01/14 06:11:20;;;;;;;18.42;9.55;;;;;;;-0.56;50.76;95555.75;5079877;28;20209;-79
2022/01/14 06:13:46;;;;;;;16.60;11.60;;;;;;;-0.08;50.23;95566.16;5069010;28;20188;-80
2022/01/14 06:16:12;;;;;;;19.17;12.48;;;;;;;-0.18;50.68;95560.03;5086686;28;20217;-79
2022/01/14 06:18:37;;;;;;;19.87;11.20;;;;;;;0.00;50.93;95566.47;5079262;28;20185;-79
2022/01/14 06:21:03;;;;;;;18.90;13.30;;;;;;;-0.08;50.95;95568.72;5074704;28;20248;-79
2022/01/14 06:23:29;;;;;;;20.42;13.55;;;;;;;0.00;50.50;95569.03;5080587;28;20219;-79
2022/01/14 06:25:55;;;;;;;25.13;13.20;;;;;;;-0.02;50.81;95560.59;5076121;28;20277;-79
2022/01/14 06:28:21;;;;;;;17.70;13.37;;;;;;;0.55;49.29;95575.44;5082293;28;20186;-79
2022/01/14 06:30:46;;;;;;;15.63;7.60;;;;;;;0.07;50.92;95569.44;5057738;28;20186;-79
2022/01/14 06:33:12;;;;;;;19.23;12.90;;;;;;;0.56;49.72;95563.38;5084150;28;20419;-79
2022/01/14 06:35:37;;;;;;;25.87;15.33;;;;;;;0.39;51.03;95562.81;5064834;28;20190;-76
2022/01/14 06:38:03;;;;;;;19.40;13.23;;;;;;;0.37;51.54;95556.16;5079914;28;20178;-78
2022/01/14 06:40:29;;;;;;;10.57;8.97;;;;;;;0.37;52.34;95548.44;5064272;28;20209;-78
2022/01/14 06:42:55;;;;;;;22.95;10.88;;;;;;;0.53;52.91;95564.44;5066937;28;20229;-78
2022/01/14 06:45:21;;;;;;;16.97;12.60;;;;;;;0.78;54.28;95560.09;5077178;28;20202;-78
2022/01/14 06:47:47;;;;;;;20.15;11.80;;;;;;;0.84;54.81;95564.78;5068224;28;20186;-78
2022/01/14 06:50:14;;;;;;;14.35;11.70;;;;;;;1.12;55.31;95545.56;5087466;28;20189;-79
2022/01/14 06:52:39;;;;;;;19.52;10.50;;;;;;;1.35;55.19;95538.69;5083789;28;20189;-79
2022/01/14 06:55:05;;;;;;;18.10;11.40;;;;;;;1.71;55.04;95546.31;5089940;28;20516;-79
2022/01/14 06:57:31;;;;;;;20.05;14.85;;;;;;;1.72;54.75;95525.56;5071712;28;20209;-79
2022/01/14 06:59:57;;;;;;;20.80;14.83;;;;;;;1.96;54.26;95527.19;5077562;28;20260;-79
2022/01/14 07:02:22;;;;;;;27.90;13.30;;;;;;;1.84;54.71;95525.53;5089319;28;20641;-79
2022/01/14 07:04:48;;;;;;;19.47;9.63;;;;;;;1.51;55.80;95516.88;5083253;28;20261;-79
2022/01/14 07:07:13;;;;;;;27.17;11.77;;;;;;;2.06;55.53;95517.78;5088768;28;20192;-80
2022/01/14 07:09:55;;;;;;;27.43;11.50;;;;;;;2.23;55.05;95523.38;5063210;28;20198;-79
2022/01/14 07:12:23;;;;;;;17.48;8.60;;;;;;;1.87;58.40;95531.28;5087726;28;20170;-79
2022/01/14 07:14:48;;;;;;;12.27;8.45;;;;;;;2.32;57.90;95504.59;5080581;28;20186;-79
2022/01/14 07:17:14;;;;;;;18.43;8.60;;;;;;;2.34;59.33;95505.28;5086959;28;20265;-78
2022/01/14 07:19:39;;;;;;;36.57;11.40;;;;;;;2.54;58.63;95496.75;5081075;28;20199;-78
2022/01/14 07:22:05;;;;;;;9.03;7.83;;;;;;;2.64;59.59;95496.03;5086017;28;20193;-80
2022/01/14 07:24:30;;;;;;;9.77;5.93;;;;;;;2.91;58.23;95498.91;5086087;28;20190;-79
2022/01/14 07:26:56;;;;;;;8.43;5.37;;;;;;;2.31;60.16;95496.00;5088863;28;20636;-79
2022/01/14 07:29:21;;;;;;;12.77;7.33;;;;;;;2.70;59.70;95500.69;5070884;28;20200;-78
2022/01/14 07:31:46;;;;;;;11.70;5.03;;;;;;;2.17;61.29;95491.13;5088881;28;20186;-79
2022/01/14 07:34:12;;;;;;;6.87;4.10;;;;;;;2.25;61.55;95495.69;5087689;28;20193;-79
2022/01/14 07:36:37;;;;;;;8.70;6.63;;;;;;;3.16;58.00;95496.91;5077260;28;20242;-77
2022/01/14 07:39:05;;;;;;;6.10;3.70;;;;;;;2.52;60.17;95488.31;5082547;28;20187;-79
2022/01/14 07:41:32;;;;;;;7.15;5.63;;;;;;;3.04;58.96;95477.25;5082793;28;20186;-79
2022/01/14 07:43:58;;;;;;;9.87;5.50;;;;;;;2.63;60.04;95463.38;5080467;28;20215;-79
2022/01/14 07:46:23;;;;;;;6.50;5.85;;;;;;;2.79;60.55;95484.44;5079736;28;20405;-79
2022/01/14 07:48:49;;;;;;;12.60;6.93;;;;;;;3.44;58.84;95484.25;5067292;28;20568;-80
2022/01/14 07:51:14;;;;;;;10.57;5.30;;;;;;;3.14;59.04;95472.94;5078383;28;20182;-78
2022/01/14 07:53:40;;;;;;;8.30;5.53;;;;;;;2.84;60.30;95455.63;5087699;28;20228;-77
2022/01/14 07:56:07;;;;;;;9.30;4.73;;;;;;;3.08;59.74;95468.28;5072661;28;20178;-77
2022/01/14 07:58:34;;;;;;;11.77;5.57;;;;;;;3.42;58.97;95480.97;5072421;28;20515;-79
2022/01/14 08:01:00;;;;;;;13.83;5.93;;;;;;;3.07;59.63;95474.38;5086679;28;20519;-78
2022/01/14 08:03:25;;;;;;;5.00;4.50;;;;;;;3.24;59.06;95473.78;5068563;28;21991;-78
2022/01/14 08:05:53;;;;;;;15.13;6.27;;;;;;;3.58;58.57;95470.16;5087461;28;20182;-78
2022/01/14 08:08:19;;;;;;;8.70;5.40;;;;;;;3.46;57.91;95446.13;5088732;28;20181;-78
2022/01/14 08:10:44;;;;;;;5.20;4.33;;;;;;;3.68;57.09;95461.47;5088210;28;20418;-78
2022/01/14 08:13:09;;;;;;;5.73;4.57;;;;;;;3.11;59.30;95455.09;5089091;28;20186;-79
2022/01/14 08:15:35;;;;;;;6.83;4.90;;;;;;;3.04;59.87;95446.22;5086004;28;20182;-79
2022/01/14 08:18:01;;;;;;;7.60;5.60;;;;;;;3.64;57.80;95456.66;5087856;28;20237;-77
2022/01/14 08:20:27;;;;;;;8.50;6.60;;;;;;;3.56;58.02;95444.38;5071132;28;20205;-78
2022/01/14 08:22:53;;;;;;;5.57;5.03;;;;;;;3.24;59.07;95442.75;5087853;28;20452;-79
2022/01/14 08:25:18;;;;;;;6.17;4.50;;;;;;;3.02;60.11;95454.09;5083727;28;20429;-79
2022/01/14 08:27:44;;;;;;;9.13;4.40;;;;;;;3.73;58.31;95455.88;5082972;28;20479;-78
2022/01/14 08:30:10;;;;;;;8.00;6.83;;;;;;;3.79;58.27;95446.78;5088176;28;20499;-78
2022/01/14 08:32:35;;;;;;;6.83;6.17;;;;;;;4.33;56.72;95444.69;5069942;28;20181;-78
2022/01/14 08:35:00;;;;;;;10.90;5.13;;;;;;;4.13;57.49;95446.44;5066111;28;20489;-78
2022/01/14 08:37:27;;;;;;;4.63;3.87;;;;;;;3.91;57.90;95425.81;5086827;28;20208;-78
2022/01/14 08:39:53;;;;;;;7.73;6.00;;;;;;;4.10;57.62;95429.41;5079834;28;20229;-78
2022/01/14 08:42:18;;;;;;;5.30;4.53;;;;;;;3.85;58.06;95425.53;5076120;28;20560;-79
2022/01/14 08:44:44;;;;;;;6.77;3.80;;;;;;;4.42;57.35;95425.72;5055760;28;20190;-79
2022/01/14 08:47:10;;;;;;;24.30;5.70;;;;;;;4.31;57.21;95439.66;5067490;28;20268;-78
2022/01/14 08:49:38;;;;;;;8.00;5.93;;;;;;;4.30;56.92;95425.03;5078916;28;20429;-76
2022/01/14 08:52:05;;;;;;;7.10;4.23;;;;;;;4.39;57.04;95437.19;5059269;28;20409;-79
2022/01/14 08:54:30;;;;;;;5.30;4.80;;;;;;;4.47;56.30;95431.31;5079887;28;20461;-78
2022/01/14 08:56:56;;;;;;;8.70;4.27;;;;;;;4.04;57.26;95407.47;5063680;28;20438;-78
2022/01/14 08:59:23;;;;;;;10.00;5.03;;;;;;;4.40;56.67;95410.31;5068680;28;20216;-78
2022/01/14 09:01:48;;;;;;;18.63;6.03;;;;;;;4.19;57.18;95427.75;5084706;28;20448;-77
2022/01/14 09:04:15;;;;;;;11.33;7.70;;;;;;;4.29;56.89;95433.78;5083924;28;20478;-79
2022/01/14 09:06:40;;;;;;;9.50;5.50;;;;;;;4.67;55.86;95421.75;5074445;28;20194;-79
2022/01/14 09:09:06;;;;;;;17.87;7.20;;;;;;;4.71;56.26;95417.94;5072504;28;20432;-77
2022/01/14 09:11:33;;;;;;;12.13;4.80;;;;;;;4.38;55.97;95414.00;5083040;28;20202;-71
2022/01/14 09:13:58;;;;;;;9.20;5.73;;;;;;;4.58;56.29;95432.97;5081213;28;20486;-72
2022/01/14 09:16:25;;;;;;;9.90;5.40;;;;;;;4.15;57.01;95416.84;5078201;28;20440;-72
2022/01/14 09:18:51;;;;;;;8.23;5.03;;;;;;;3.66;57.95;95403.84;5080975;28;20452;-70
2022/01/14 09:21:23;;;;;;;8.33;5.60;;;;;;;4.16;57.31;95410.72;5062884;28;20185;-71
2022/01/14 09:23:56;;;;;;;7.50;5.60;;;;;;;4.49;56.37;95406.88;5062811;28;20213;-72
2022/01/14 09:26:22;;;;;;;8.90;6.50;;;;;;;4.83;55.11;95401.25;5054382;28;20503;-72
2022/01/14 09:28:49;;;;;;;7.73;5.00;;;;;;;4.83;54.62;95392.66;5056059;28;20428;-72
2022/01/14 09:31:16;;;;;;;7.33;4.80;;;;;;;4.65;55.34;95375.22;5063829;28;20420;-72
2022/01/14 09:33:42;;;;;;;6.53;5.77;;;;;;;4.97;54.38;95381.84;5064385;28;20489;-72
2022/01/14 09:36:07;;;;;;;11.70;6.27;;;;;;;5.24;53.60;95375.06;5085430;28;20419;-72
2022/01/14 09:38:33;;;;;;;8.20;4.83;;;;;;;5.56;52.69;95371.19;5075276;28;20193;-71
2022/01/14 09:40:59;;;;;;;7.40;5.63;;;;;;;5.64;53.39;95371.31;5077694;28;20425;-72
2022/01/14 09:43:25;;;;;;;8.20;5.80;;;;;;;5.11;53.59;95331.28;5082655;28;20209;-72
2022/01/14 09:45:52;;;;;;;13.37;6.50;;;;;;;5.63;52.82;95383.47;5084484;28;20458;-73
2022/01/14 09:48:18;;;;;;;10.37;5.80;;;;;;;4.96;53.71;95384.56;5084487;28;20420;-72
2022/01/14 09:50:45;;;;;;;13.50;7.13;;;;;;;5.45;53.46;95374.84;5085059;28;20479;-72
2022/01/14 09:53:12;;;;;;;7.30;5.40;;;;;;;5.10;54.42;95355.56;5084311;28;20419;-71
2022/01/14 09:55:38;;;;;;;10.30;5.93;;;;;;;5.44;53.34;95352.41;5084560;28;20420;-72
2022/01/14 09:58:03;;;;;;;5.30;4.80;;;;;;;5.23;54.95;95335.31;5085092;28;20426;-72
2022/01/14 10:00:29;;;;;;;7.73;5.20;;;;;;;5.41;54.13;95334.56;5078425;28;20276;-72
2022/01/14 10:02:54;;;;;;;7.33;5.40;;;;;;;5.23;54.77;95324.13;5074694;28;20224;-71
2022/01/14 10:05:39;;;;;;;6.57;5.13;;;;;;;5.56;53.80;95320.13;5072085;28;20196;-72
2022/01/14 10:08:22;;;;;;;7.40;4.77;;;;;;;5.54;54.18;95316.84;5077087;28;20182;-72
2022/01/14 10:10:58;;;;;;;8.80;4.00;;;;;;;5.55;54.13;95302.91;5081103;28;20432;-72
2022/01/14 10:13:31;;;;;;;17.73;5.10;;;;;;;5.14;55.34;95305.06;5084587;28;20416;-71
2022/01/14 10:16:09;;;;;;;11.13;4.60;;;;;;;5.29;54.88;95289.81;5062229;28;20440;-72
2022/01/14 10:18:35;;;;;;;6.43;4.30;;;;;;;5.26;54.20;95300.50;5082745;28;20420;-72
2022/01/14 10:21:05;;;;;;;6.77;4.97;;;;;;;5.31;54.46;95303.44;5066507;28;20428;-72
2022/01/14 10:23:47;;;;;;;6.60;4.83;;;;;;;4.99;55.49;95288.31;5083865;28;20467;-72
2022/01/14 10:26:15;;;;;;;6.47;4.00;;;;;;;5.01;55.60;95279.44;5068041;28;20428;-72
2022/01/14 10:28:44;;;;;;;6.87;4.00;;;;;;;5.59;54.32;95278.28;5058818;28;20424;-71
2022/01/14 10:31:10;;;;;;;5.63;4.53;;;;;;;5.20;55.59;95283.72;5074350;28;20524;-71
2022/01/14 10:33:36;;;;;;;4.70;3.83;;;;;;;4.85;55.87;95269.69;5084261;28;20445;-72
2022/01/14 10:36:02;;;;;;;8.97;4.60;;;;;;;5.09;54.90;95266.56;5067466;28;20519;-72
2022/01/14 10:38:38;;;;;;;5.67;5.10;;;;;;;5.66;53.90;95255.94;5084315;28;20431;-75
2022/01/14 10:41:08;;;;;;;9.73;6.30;;;;;;;5.90;53.28;95264.09;5083846;28;20424;-72
2022/01/14 10:43:41;;;;;;;5.93;4.83;;;;;;;5.76;53.49;95262.84;5088810;28;20505;-71
2022/01/14 10:46:08;;;;;;;7.03;6.20;;;;;;;5.87;53.15;95265.22;5066765;28;20424;-71
2022/01/14 10:48:36;;;;;;;5.43;4.17;;;;;;;6.15;52.09;95263.38;5073176;28;20429;-73
2022/01/14 10:51:16;;;;;;;7.00;4.30;;;;;;;6.39;51.96;95262.72;5077591;28;20416;-72
2022/01/14 10:53:44;;;;;;;6.13;4.83;;;;;;;6.13;52.20;95252.31;5088296;28;20430;-72
2022/01/14 10:56:17;;;;;;;6.53;5.10;;;;;;;5.77;52.94;95233.34;5077754;28;20446;-72
2022/01/14 10:58:48;;;;;;;6.47;5.13;;;;;;;6.47;51.74;95240.31;5054818;28;20988;-73
2022/01/14 11:01:21;;;;;;;4.87;4.40;;;;;;;6.63;51.36;95235.22;5083541;28;20811;-71
2022/01/14 11:03:48;;;;;;;9.80;4.27;;;;;;;6.38;51.37;95222.09;5064987;28;20467;-72
2022/01/14 11:06:22;;;;;;;8.30;5.90;;;;;;;7.49;49.88;95234.19;5065303;28;20519;-71
2022/01/14 11:08:56;;;;;;;5.37;4.83;;;;;;;7.18;49.26;95200.94;5064029;28;20443;-71
2022/01/14 11:11:22;;;;;;;6.47;3.53;;;;;;;6.61;50.55;95205.97;5072900;28;20436;-72
2022/01/14 11:13:48;;;;;;;5.33;4.43;;;;;;;7.17;49.85;95214.94;5077085;28;20429;-72
2022/01/14 11:16:13;;;;;;;13.60;7.73;;;;;;;8.12;47.48;95218.91;5064865;28;20186;-73
2022/01/14 11:18:39;;;;;;;6.10;4.57;;;;;;;7.67;48.72;95202.00;5081952;28;20182;-73
2022/01/14 11:23:50;;;;;;;4.37;3.60;;;;;;;7.16;49.57;95184.69;5079399;28;20480;-72
2022/01/14 11:26:19;;;;;;;6.13;4.80;;;;;;;6.93;49.73;95189.66;5067017;28;20424;-72
2022/01/14 11:28:46;;;;;;;7.53;5.37;;;;;;;6.39;50.87;95140.56;5077478;28;20279;-70
2022/01/14 11:31:25;;;;;;;6.77;4.87;;;;;;;6.90;50.13;95183.97;5082261;28;20930;-71
2022/01/14 11:33:50;;;;;;;7.83;4.20;;;;;;;7.80;47.81;95174.47;5078049;28;20460;-72
2022/01/14 11:36:16;;;;;;;6.23;4.17;;;;;;;7.12;49.75;95140.94;5086249;28;20443;-72
2022/01/14 11:38:44;;;;;;;7.10;2.97;;;;;;;7.28;49.39;95160.94;5083116;28;20204;-71
2022/01/14 11:41:16;;;;;;;6.00;4.10;;;;;;;7.48;48.72;95133.63;5051822;28;20448;-71
2022/01/14 11:43:52;;;;;;;5.23;4.17;;;;;;;7.78;47.90;95144.38;5078512;28;20559;-72
2022/01/14 11:46:36;;;;;;;4.50;3.03;;;;;;;7.47;48.90;95145.00;5081000;28;20428;-73
2022/01/14 11:49:22;;;;;;;5.30;4.00;;;;;;;7.83;47.36;95144.66;5081262;28;20423;-72
2022/01/14 11:52:08;;;;;;;7.97;3.80;;;;;;;8.14;46.22;95136.16;5086369;28;20488;-72
2022/01/14 11:54:38;;;;;;;5.23;4.03;;;;;;;8.37;46.28;95123.22;5086635;28;20431;-73
2022/01/14 11:57:04;;;;;;;3.80;2.80;;;;;;;7.56;47.60;95130.19;5088248;28;20427;-72
2022/01/14 11:59:29;;;;;;;4.40;3.70;;;;;;;7.28;48.32;95098.47;5085749;28;20427;-70
2022/01/14 12:01:56;;;;;;;6.67;4.17;;;;;;;7.99;47.25;95118.59;5079677;28;20475;-71
2022/01/14 12:04:22;;;;;;;15.60;5.47;;;;;;;8.22;47.40;95125.69;5083251;28;20269;-72